Sewell, New Jersey
Current Conditions -  °F | °C
As of 9:54 PM on Monday 22 Dec 2014 (Local Time) from KPHL Reporting Station
Light Rain Light Rain  
Wind Chill: 37°   Ceiling: 7000
Heat Index: 42°   Visibility: 5mi
Dew Point: 39°   Wind: 8mph
Humidity: 89%   Direction: 60°ENE
Pressure: 30.14"   Gusts: NA
Location:  39.77°N, 75.14°W
Report Text: KPHL 230254Z 06007KT 5SM -RA BR FEW020 SCT040 OVC070 06/04 A3014 RMK AO2 RAB12 SLP207 P0001 60002 T00560039 58016 $
Loading
Personal Weather Stations






























Interactive Weather Map New forecast layout! Learn more

10-Day Weather Forecast

Advertisements
Track Severe Weather on mobile